Latest Coastal Weather Observations for Merimbula

IDN60701

Issued at 6:15 am EST Wednesday 1 October 2014 (issued every 10 minutes, with the page automatically refreshed every 10 minutes)

About coastal observations | Map of coastal stations | Coastal observations for NSW | Marine services | Other Formats
Station Details ID: 069147 Name: MERIMBULA AIRPORT AWS Lat: -36.91 Lon: 149.90 Height: 1.5 m
Data from the previous 72 hours. | See also: Recent months at Merimbula
Date/Time
EST
Temp

°C
Wind Pressure Rain
since 9am
mm
Weather Cloud Vis
km
Sea
Height
m
Swell
Dir
 
Speed
knots
Gust
knots
hPa Trend Height
m
Period
s
Dir
01/06:00am 9.8 W 15 24 1014.4 - 0.6 - - 10 - - - -
01/05:30am 10.1 W 15 27 1013.2 - 0.6 - - 10 - - - -
01/05:14am 10.4 W 15 29 1012.8 - 0.6 - - 10 - - - -
01/05:00am 10.2 W 11 15 1012.6 - 0.6 - - 10 - - - -
01/04:30am 10.0 W 10 16 1012.2 - 0.6 - - 10 - - - -
01/04:00am 9.6 W 9 13 1011.8 - 0.6 - - 10 - - - -
01/03:30am 9.6 W 8 12 1011.4 - 0.6 - - 10 - - - -
01/03:00am 9.6 W 7 11 1011.1 - 0.6 - - 10 - - - -
01/02:30am 10.3 WSW 9 14 1010.5 - 0.6 - - 10 - - - -
01/02:00am 9.7 W 8 15 1010.4 - 0.6 - - 10 - - - -
01/01:30am 9.3 W 9 14 1010.4 - 0.6 - - 10 - - - -
01/01:00am 9.0 W 9 15 1010.5 - 0.6 - - 10 - - - -
01/12:30am 8.7 W 10 15 1010.0 - 0.6 - Partly cloudy 10 - - - -
01/12:00am 8.8 W 13 19 1010.0 - 0.6 Recent precip. Cloudy 10 - - - -
 
Date/Time
EST
Temp

°C
Wind Pressure Rain
since 9am
mm
Weather Cloud Vis
km
Sea
Height
m
Swell
Dir
 
Speed
knots
Gust
knots
hPa Trend Height
m
Period
s
Dir
30/11:30pm 8.7 WSW 16 26 1010.0 - 0.2 - Partly cloudy 10 - - - -
30/11:00pm 9.4 SW 21 34 1009.5 - 0.0 - Partly cloudy 10 - - - -
30/10:43pm 9.9 SW 21 37 1009.4 - 0.0 - Partly cloudy 10 - - - -
30/10:30pm 12.2 SW 15 27 1008.7 - 0.0 - Partly cloudy 10 - - - -
30/10:00pm 13.2 SW 17 28 1007.5 - 0.0 - - 10 - - - -
30/09:30pm 14.4 SSW 18 31 1006.6 - 0.0 - Partly cloudy 10 - - - -
30/09:15pm 15.5 SSW 18 29 1006.1 - 0.0 - Partly cloudy 10 - - - -
30/09:00pm 17.5 SSW 13 22 1006.0 - 0.0 - Mostly cloudy 10 - - - -
30/08:57pm 18.3 SSW 12 22 1005.8 - 0.0 - Partly cloudy 10 - - - -
30/08:30pm 23.3 W 15 24 1005.4 - 0.0 - - 10 - - - -
30/08:01pm 23.4 WNW 16 29 1004.5 - 0.0 - - 10 - - - -
30/08:00pm 23.1 WNW 15 21 1004.5 - 0.0 - - 10 - - - -
30/07:30pm 22.8 WNW 12 18 1003.7 - 0.0 - - 10 - - - -
30/07:00pm 23.5 WNW 13 20 1003.3 - 0.0 - - 10 - - - -
30/06:30pm 23.7 WNW 14 23 1003.3 - 0.0 - - 10 - - - -
30/06:13pm 24.3 WNW 15 25 1003.4 - 0.0 - - 10 - - - -
30/06:00pm 24.3 W 15 23 1003.2 - 0.0 - - 10 - - - -
30/05:43pm 24.6 WNW 16 26 1002.9 - 0.0 - - 10 - - - -
30/05:30pm 25.4 W 16 25 1002.8 - 0.0 - - 10 - - - -
30/05:00pm 26.4 WNW 21 33 1002.6 - 0.0 - - 10 - - - -
30/04:30pm 27.2 WNW 15 25 1002.3 - 0.0 - - 10 - - - -
30/04:14pm 27.4 NW 16 27 1002.3 - 0.0 - - 10 - - - -
30/04:00pm 27.4 NW 15 23 1002.3 - 0.0 - - 10 - - - -
30/03:48pm 27.6 NW 16 29 1002.4 - 0.0 - - 10 - - - -
30/03:37pm 26.5 NW 13 21 1002.3 - 0.0 - - 10 - - - -
30/03:30pm 21.5 ESE 5 9 1002.5 - 0.0 - - 10 - - - -
30/03:00pm 20.3 E 7 11 1002.5 - 0.0 - - 10 - - - -
30/02:30pm 20.4 ESE 7 11 1003.7 - 0.0 - - 10 - - - -
30/02:00pm 19.8 E 5 9 1004.6 - 0.0 - - 10 - - - -
30/01:30pm 19.6 E 6 10 1005.4 - 0.0 - - 10 - - - -
30/01:00pm 19.9 E 5 8 1005.6 - 0.0 - - 10 - - - -
30/12:30pm 19.6 ESE 7 10 1006.4 - 0.0 - - 10 - - - -
30/12:00pm 20.3 E 6 8 1006.7 - 0.0 - - 10 - - - -
30/11:30am 19.0 ESE 7 9 1007.3 - 0.0 - - 10 - - - -
30/11:00am 19.2 E 6 8 1007.8 - 0.0 - - 10 - - - -
30/10:30am 18.6 E 5 7 1008.7 - 0.0 - - 10 - - - -
30/10:00am 17.9 E 5 8 1009.1 - 0.0 - - 10 - - - -
30/09:30am 18.1 E 5 7 1009.7 - 0.0 - - 10 - - - -
30/09:00am 17.2 E 1 5 1009.9 - 0.0 - - 10 - - - -
30/08:30am 15.2 CALM 0 0 1010.1 - 0.0 - - 10 - - - -
30/08:00am 13.1 CALM 0 0 1010.3 - 0.0 - - 10 - - - -
30/07:30am 11.8 WSW 1 4 1010.5 - 0.0 - - 10 - - - -
30/07:00am 10.0 SSW 1 4 1010.9 - 0.0 - - 10 - - - -
30/06:30am 8.5 SSW 3 5 1011.0 - 0.0 - - 10 - - - -
30/06:00am 7.2 SSW 4 6 1010.9 - 0.0 - - 10 - - - -
30/05:30am 7.0 CALM 0 0 1011.0 - 0.0 - Partly cloudy 8 - - - -
30/05:00am 7.1 SSW 5 6 1010.9 - 0.0 - - 10 - - - -
30/04:30am 7.4 SSW 4 7 1010.7 - 0.0 - - 10 - - - -
30/04:00am 7.9 S 5 6 1010.9 - 0.0 - - 10 - - - -
30/03:30am 8.0 SSW 6 8 1010.9 - 0.0 - - 10 - - - -
30/03:00am 7.8 WSW 2 4 1011.2 - 0.0 - - 6 - - - -
30/02:30am 8.0 CALM 0 0 1011.5 - 0.0 - - 7 - - - -
30/02:13am 8.0 CALM 0 0 1011.7 - 0.0 - - 8 - - - -
30/02:00am 7.4 CALM 0 0 1011.7 - 0.0 - - 2 - - - -
30/01:39am 7.7 CALM 0 0 1012.0 - 0.0 - - 5 - - - -
30/01:30am 7.8 WSW 2 4 1012.1 - 0.0 - - 6 - - - -
30/01:00am 8.8 SSW 5 5 1012.5 - 0.0 - - 10 - - - -
30/12:48am 8.2 SSW 2 5 1012.8 - 0.0 - - 9 - - - -
30/12:30am 8.7 SW 1 4 1013.0 - 0.0 - - 5 - - - -
30/12:27am 8.7 SW 2 4 1013.1 - 0.0 - - 5 - - - -
30/12:00am 8.9 CALM 0 0 1013.4 - 0.0 - - 9 - - - -
 
Date/Time
EST
Temp

°C
Wind Pressure Rain
since 9am
mm
Weather Cloud Vis
km
Sea
Height
m
Swell
Dir
 
Speed
knots
Gust
knots
hPa Trend Height
m
Period
s
Dir
29/11:30pm 9.0 CALM 0 0 1013.6 - 0.0 - - 7 - - - -
29/11:00pm 9.4 CALM 0 0 1014.0 - 0.0 - - 10 - - - -
29/10:30pm 10.3 CALM 0 0 1014.2 - 0.0 - - 10 - - - -
29/10:00pm 11.7 N 1 4 1014.4 - 0.0 - - 10 - - - -
29/09:30pm 12.7 NNW 5 6 1014.5 - 0.0 - - 10 - - - -
29/09:00pm 13.7 N 4 7 1014.7 - 0.0 - - 10 - - - -
29/08:30pm 13.9 N 4 7 1014.9 - 0.0 - - 10 - - - -
29/08:00pm 14.4 N 5 8 1015.0 - 0.0 - - 10 - - - -
29/07:30pm 14.8 N 5 8 1014.9 - 0.0 - - 10 - - - -
29/07:00pm 14.8 N 5 8 1014.6 - 0.0 - - 10 - - - -
29/06:30pm 15.1 NNE 3 6 1014.5 - 0.0 - - 10 - - - -
29/06:00pm 15.7 NNE 5 10 1014.3 - 0.0 - - 10 - - - -
29/05:30pm 16.3 NE 5 8 1014.1 - 0.0 - - 10 - - - -
29/05:00pm 17.3 ENE 5 7 1014.0 - 0.0 - - 10 - - - -
29/04:30pm 17.6 E 6 9 1013.7 - 0.0 - - 10 - - - -
29/04:00pm 17.9 E 8 11 1013.5 - 0.0 - - 10 - - - -
29/03:30pm 18.2 ESE 8 16 1013.1 - 0.0 - - 10 - - - -
29/03:00pm 18.5 ESE 7 11 1012.8 - 0.0 - - 10 - - - -
29/02:30pm 18.5 ESE 9 15 1012.5 - 0.0 - - 10 - - - -
29/02:00pm 18.8 E 6 11 1012.4 - 0.0 - - 10 - - - -
29/01:30pm 19.0 E 7 11 1012.4 - 0.0 - - 10 - - - -
29/01:00pm 19.5 ENE 9 13 1012.4 - 0.0 - - 10 - - - -
29/12:30pm 19.7 ENE 7 10 1012.1 - 0.0 - - 10 - - - -
29/12:00pm 19.5 E 6 9 1012.1 - 0.0 - - 10 - - - -
29/11:30am 19.5 ESE 8 14 1012.1 - 0.0 - - 10 - - - -
29/11:00am 19.9 ESE 9 15 1012.1 - 0.0 - - 10 - - - -
29/10:30am 20.4 ESE 10 15 1012.2 - 0.0 - - 10 - - - -
29/10:00am 21.3 E 6 9 1012.0 - 0.0 - - 10 - - - -
29/09:30am 20.7 SE 5 9 1012.0 - 0.0 - - 10 - - - -
29/09:00am 20.3 SSE 5 7 1012.0 - 0.0 - Mostly clear 10 - - - -
29/08:30am 18.5 SE 8 13 1012.2 - 0.0 - - 10 - - - -
29/08:00am 18.7 ESE 6 10 1011.6 - 0.0 - - 10 - - - -
29/07:30am 18.0 SSW 4 6 1011.4 - 0.0 - - 10 - - - -
29/07:00am 16.9 CALM 0 0 1011.0 - 0.0 - - 10 - - - -
29/06:30am 14.8 NNE 2 6 1011.2 - 0.0 - - 10 - - - -
29/06:00am 13.4 SSW 5 9 1010.0 - 0.0 - - 10 - - - -
29/05:30am 13.8 WSW 4 6 1009.2 - 0.0 - - 10 - - - -
29/05:00am 14.5 W 4 6 1008.3 - 0.0 - - 10 - - - -
29/04:30am 16.7 NW 5 6 1007.2 - 0.0 - - 10 - - - -
29/04:00am 16.5 WNW 11 14 1007.3 - 0.0 - - 10 - - - -
29/03:30am 12.5 CALM 0 0 1007.0 - 0.0 - - 10 - - - -
29/03:00am 11.5 NNW 2 6 1007.2 - 0.0 - - 10 - - - -
29/02:30am 12.1 SW 1 5 1008.0 - 0.0 - - 10 - - - -
29/02:00am 12.4 SSW 5 7 1008.2 - 0.0 - - 10 - - - -
29/01:30am 13.3 CALM 0 0 1008.6 - 0.0 - - 10 - - - -
29/01:00am 15.6 NNW 4 6 1008.9 - 0.0 - - 10 - - - -
29/12:30am 16.7 NNE 5 7 1009.2 - 0.0 - - 10 - - - -
29/12:00am 16.3 NE 5 8 1009.5 - 0.0 - Cloudy 10 - - - -
 
Date/Time
EST
Temp

°C
Wind Pressure Rain
since 9am
mm
Weather Cloud Vis
km
Sea
Height
m
Swell
Dir
 
Speed
knots
Gust
knots
hPa Trend Height
m
Period
s
Dir
28/11:30pm 13.9 NNE 3 8 1009.3 - 0.0 - - 10 - - - -
28/11:00pm 11.8 CALM 0 0 1009.3 - 0.0 - - 10 - - - -
28/10:30pm 12.4 CALM 0 0 1009.9 - 0.0 - - 8 - - - -
28/10:21pm 12.3 CALM 0 0 1010.0 - 0.0 - - 6 - - - -
28/10:03pm 12.7 CALM 0 0 1010.2 - 0.0 - - 5 - - - -
28/10:00pm 13.1 CALM 0 0 1010.3 - 0.0 - - 6 - - - -
28/09:30pm 13.4 NNW 2 6 1010.5 - 0.0 - - 10 - - - -
28/09:00pm 13.3 CALM 0 0 1010.7 - 0.0 - - 10 - - - -
28/08:30pm 13.8 CALM 0 0 1010.8 - 0.0 - - 10 - - - -
28/08:00pm 14.3 CALM 0 4 1010.8 - 0.0 - - 10 - - - -
28/07:30pm 14.9 CALM 0 0 1010.7 - 0.0 - - 10 - - - -
28/07:00pm 16.6 N 4 6 1011.1 - 0.0 - - 10 - - - -
28/06:30pm 17.0 NE 5 7 1011.2 - 0.0 - - 10 - - - -
28/06:00pm 17.9 S 1 4 1011.1 - 0.0 - - 10 - - - -
28/05:30pm 18.6 ENE 5 7 1011.2 - 0.0 - - 10 - - - -
28/05:00pm 19.7 NE 7 12 1010.7 - 0.0 - - 10 - - - -
28/04:30pm 20.0 NE 9 14 1010.7 - 0.0 - - 10 - - - -
28/04:00pm 20.2 NE 11 16 1010.9 - 0.0 - - 10 - - - -
28/03:30pm 19.9 NNE 11 17 1011.3 - 0.0 - - 10 - - - -
28/03:00pm 19.6 NE 12 18 1011.9 - 0.0 - - 10 - - - -
28/02:30pm 19.7 NE 13 23 1012.3 - 0.0 - - 10 - - - -
28/02:00pm 20.1 NE 12 20 1012.8 - 0.0 - - 10 - - - -
28/01:30pm 20.3 NE 13 19 1013.2 - 0.0 - - 10 - - - -
28/01:00pm 20.5 NE 13 19 1013.7 - 0.0 - - 10 - - - -
28/12:30pm 21.0 NE 11 16 1014.1 - 0.0 - - 10 - - - -
28/12:00pm 21.1 NE 11 17 1014.5 - 0.0 - - 10 - - - -
28/11:30am 20.8 NE 11 15 1015.0 - 0.0 - - 10 - - - -
28/11:00am 20.6 ENE 8 11 1015.5 - 0.0 - - 10 - - - -
28/10:30am 19.7 ENE 7 12 1016.1 - 0.0 - - 10 - - - -
28/10:00am 19.2 NE 6 9 1016.7 - 0.0 - - 10 - - - -
28/09:30am 18.8 CALM 0 0 1017.3 - 0.0 - - 10 - - - -
28/09:00am 17.5 CALM 0 0 1017.8 - 0.0 - - 10 - - - -
28/08:30am 15.1 CALM 0 0 1018.2 - 0.0 - - 10 - - - -
28/08:00am 13.3 CALM 0 0 1018.2 - 0.0 - - 10 - - - -
28/07:30am 10.3 CALM 0 0 1018.6 - 0.0 - - 10 - - - -
28/07:00am 8.8 SSW 1 4 1018.4 - 0.0 - - 10 - - - -
28/06:30am 7.1 SSW 3 4 1018.5 - 0.0 - - 10 - - - -

Other Formats:

Comma delimited format used in spreadsheet applications
http://www.bom.gov.au/fwo/IDN60701/IDN60701.95929.axf

JavaScript Object Notation format (JSON) in row-major order
http://www.bom.gov.au/fwo/IDN60701/IDN60701.95929.json